createdAt,value
2019-01-06T00:00:33.929Z,0.90
2019-01-06T00:03:12.961Z,1.00
2019-01-06T00:06:00.428Z,1.00
2019-01-06T00:08:58.084Z,1.00
2019-01-06T00:12:02.998Z,1.00
2019-01-06T00:15:01.422Z,1.00
2019-01-06T00:17:48.995Z,1.00
2019-01-06T00:20:36.712Z,1.00
2019-01-06T00:23:26.689Z,1.00
2019-01-06T00:26:17.387Z,1.00
2019-01-06T00:29:09.107Z,1.00
2019-01-06T00:32:10.068Z,1.00
2019-01-06T00:34:58.551Z,1.10
2019-01-06T00:37:46.079Z,1.10
2019-01-06T00:40:52.818Z,1.10
2019-01-06T00:43:35.469Z,1.10
2019-01-06T00:46:22.768Z,1.10
2019-01-06T00:49:17.730Z,1.10
2019-01-06T00:52:12.586Z,1.20
2019-01-06T00:55:07.725Z,1.10
2019-01-06T00:58:08.572Z,1.20
2019-01-06T01:00:51.955Z,1.10
2019-01-06T01:03:42.354Z,1.10
2019-01-06T01:06:37.434Z,1.20
2019-01-06T01:09:44.607Z,1.10
2019-01-06T01:12:35.669Z,1.20
2019-01-06T01:15:23.593Z,1.20
2019-01-06T01:18:21.710Z,1.20
2019-01-06T01:21:05.194Z,1.20
2019-01-06T01:23:52.803Z,1.20
2019-01-06T01:26:56.571Z,1.20
2019-01-06T01:29:44.151Z,1.20
2019-01-06T01:32:31.744Z,1.20
2019-01-06T01:35:23.446Z,1.20
2019-01-06T01:38:15.098Z,1.30
2019-01-06T01:41:06.977Z,1.20
2019-01-06T01:44:13.955Z,1.20
2019-01-06T01:47:01.238Z,1.20
2019-01-06T01:49:53.062Z,1.30
2019-01-06T01:52:41.385Z,1.30
2019-01-06T01:55:30.281Z,1.30
2019-01-06T01:58:13.423Z,1.30
2019-01-06T02:01:01.027Z,1.30
2019-01-06T02:03:57.490Z,1.30
2019-01-06T02:06:50.190Z,1.30
2019-01-06T02:09:37.646Z,1.30
2019-01-06T02:12:45.165Z,1.30
2019-01-06T02:15:32.559Z,1.30
2019-01-06T02:18:30.165Z,1.30
2019-01-06T02:21:19.007Z,1.30
2019-01-06T02:24:07.893Z,1.20
2019-01-06T02:26:54.831Z,1.20
2019-01-06T02:29:42.086Z,1.20
2019-01-06T02:32:23.366Z,1.20
2019-01-06T02:35:25.518Z,1.20
2019-01-06T02:38:12.874Z,1.30
2019-01-06T02:41:05.071Z,1.30
2019-01-06T02:43:47.765Z,1.30
2019-01-06T02:46:33.577Z,1.20
2019-01-06T02:49:34.788Z,1.30
2019-01-06T02:52:31.571Z,1.30
2019-01-06T02:55:25.246Z,1.40
2019-01-06T02:58:12.861Z,1.30
2019-01-06T03:01:07.791Z,1.30
2019-01-06T03:03:56.816Z,1.30
2019-01-06T03:06:44.366Z,1.30
2019-01-06T03:09:36.235Z,1.30
2019-01-06T03:12:23.784Z,1.30
2019-01-06T03:15:12.597Z,1.30
2019-01-06T03:18:01.582Z,1.30
2019-01-06T03:21:06.393Z,1.40
2019-01-06T03:23:53.911Z,1.40
2019-01-06T03:26:39.186Z,1.30
2019-01-06T03:29:28.026Z,1.40
2019-01-06T03:32:15.363Z,1.40
2019-01-06T03:35:04.592Z,1.40
2019-01-06T03:37:51.020Z,1.40
2019-01-06T03:40:34.210Z,1.40
2019-01-06T03:43:15.001Z,1.40
2019-01-06T03:46:10.217Z,1.40
2019-01-06T03:49:08.402Z,1.40
2019-01-06T03:51:58.139Z,1.40
2019-01-06T03:54:47.126Z,1.40
2019-01-06T03:57:53.905Z,1.40
2019-01-06T04:00:45.434Z,1.40
2019-01-06T04:03:40.306Z,1.40
2019-01-06T04:06:35.474Z,1.40
2019-01-06T04:09:37.953Z,1.40
2019-01-06T04:12:30.997Z,1.40
2019-01-06T04:15:12.158Z,1.40
2019-01-06T04:17:59.807Z,1.40
2019-01-06T04:20:47.522Z,1.40
2019-01-06T04:23:47.211Z,1.40
2019-01-06T04:26:32.805Z,1.40
2019-01-06T04:29:36.625Z,1.40
2019-01-06T04:32:26.239Z,1.40
2019-01-06T04:35:18.251Z,1.40
2019-01-06T04:38:09.907Z,1.40
2019-01-06T04:40:57.386Z,1.40
2019-01-06T04:44:04.436Z,1.50
2019-01-06T04:46:53.573Z,1.40
2019-01-06T04:49:41.242Z,1.40
2019-01-06T04:52:46.627Z,1.40
2019-01-06T04:55:33.170Z,1.50
2019-01-06T04:58:27.164Z,1.40
2019-01-06T05:01:22.142Z,1.40
2019-01-06T05:04:29.226Z,1.50
2019-01-06T05:07:23.954Z,1.50
2019-01-06T05:10:11.335Z,1.50
2019-01-06T05:12:56.516Z,1.50
2019-01-06T05:15:45.896Z,1.50
2019-01-06T05:18:47.229Z,1.50
2019-01-06T05:21:36.066Z,1.50
2019-01-06T05:24:24.915Z,1.50
2019-01-06T05:27:09.490Z,1.50
2019-01-06T05:29:56.799Z,1.50
2019-01-06T05:32:45.042Z,1.50
2019-01-06T05:35:30.712Z,1.50
2019-01-06T05:38:17.993Z,1.60
2019-01-06T05:41:12.993Z,1.60
2019-01-06T05:44:10.984Z,1.50
2019-01-06T05:47:03.277Z,1.50
2019-01-06T05:49:54.215Z,1.60
2019-01-06T05:52:37.597Z,1.50
2019-01-06T05:55:32.621Z,1.50
2019-01-06T05:58:24.598Z,1.50
2019-01-06T06:01:09.180Z,1.60
2019-01-06T06:04:07.011Z,1.50
2019-01-06T06:06:54.461Z,1.50
2019-01-06T06:09:46.591Z,1.50
2019-01-06T06:12:38.306Z,1.50
2019-01-06T06:15:25.864Z,1.50
2019-01-06T06:18:14.746Z,1.60
2019-01-06T06:21:18.627Z,1.50
2019-01-06T06:24:17.823Z,1.50
2019-01-06T06:27:12.538Z,1.60
2019-01-06T06:30:01.266Z,1.50
2019-01-06T06:32:53.203Z,1.60
2019-01-06T06:35:40.830Z,1.50
2019-01-06T06:38:25.726Z,1.50
2019-01-06T06:41:14.671Z,1.50
2019-01-06T06:44:02.086Z,1.60
2019-01-06T06:46:51.018Z,1.60
2019-01-06T06:49:43.007Z,1.60
2019-01-06T06:52:27.642Z,1.60
2019-01-06T06:55:17.802Z,1.60
2019-01-06T06:58:37.906Z,1.60
2019-01-06T07:01:38.678Z,1.60
2019-01-06T07:04:26.174Z,1.60
2019-01-06T07:07:15.034Z,1.60
2019-01-06T07:10:14.226Z,1.60
2019-01-06T07:13:11.934Z,1.60
2019-01-06T07:15:59.290Z,1.60
2019-01-06T07:18:46.521Z,1.60
2019-01-06T07:21:35.694Z,1.70
2019-01-06T07:24:31.024Z,1.60
2019-01-06T07:27:37.798Z,1.60
2019-01-06T07:30:25.484Z,1.60
2019-01-06T07:33:06.353Z,1.60
2019-01-06T07:35:48.178Z,1.60
2019-01-06T07:38:35.694Z,1.60
2019-01-06T07:41:24.709Z,1.60
2019-01-06T07:44:19.981Z,1.60
2019-01-06T07:47:17.893Z,1.60
2019-01-06T07:50:05.118Z,1.70
2019-01-06T07:52:52.405Z,1.70
2019-01-06T07:55:41.258Z,1.70
2019-01-06T07:58:30.682Z,1.70
2019-01-06T08:01:18.202Z,1.80
2019-01-06T08:04:07.415Z,1.80
2019-01-06T08:06:56.889Z,1.80
2019-01-06T08:10:05.309Z,1.80
2019-01-06T08:12:50.334Z,1.80
2019-01-06T08:15:54.746Z,1.90
2019-01-06T08:18:42.174Z,1.90
2019-01-06T08:21:29.555Z,1.90
2019-01-06T08:24:30.398Z,1.90
2019-01-06T08:27:18.090Z,1.90
2019-01-06T08:30:05.319Z,1.90
2019-01-06T08:33:06.526Z,1.90
2019-01-06T08:35:49.028Z,2.00
2019-01-06T08:38:53.119Z,2.00
2019-01-06T08:41:37.782Z,2.00
2019-01-06T08:44:25.102Z,2.00
2019-01-06T08:47:12.858Z,2.10
2019-01-06T08:50:00.439Z,2.10
2019-01-06T08:52:39.350Z,2.20
2019-01-06T08:55:40.162Z,2.20
2019-01-06T08:58:38.265Z,2.30
2019-01-06T09:01:27.106Z,2.50
2019-01-06T09:04:14.914Z,2.60
2019-01-06T09:07:06.814Z,2.70
2019-01-06T09:10:07.582Z,2.70
2019-01-06T09:12:59.662Z,2.70
2019-01-06T09:15:47.366Z,2.70
2019-01-06T09:18:39.009Z,2.70
2019-01-06T09:21:26.734Z,2.70
2019-01-06T09:24:15.545Z,2.70
2019-01-06T09:27:10.682Z,2.70
2019-01-06T09:30:05.265Z,2.70
2019-01-06T09:32:52.814Z,2.60
2019-01-06T09:35:56.651Z,2.60
2019-01-06T09:38:44.280Z,2.60
2019-01-06T09:41:36.710Z,2.50
2019-01-06T09:44:24.358Z,2.50
2019-01-06T09:47:15.742Z,2.50
2019-01-06T09:50:23.138Z,2.40
2019-01-06T09:53:10.642Z,2.40
2019-01-06T09:55:58.049Z,2.50
2019-01-06T09:58:58.998Z,2.60
2019-01-06T10:01:53.582Z,2.70
2019-01-06T10:04:41.487Z,2.80
2019-01-06T10:07:31.987Z,2.90
2019-01-06T10:10:20.820Z,3.00
2019-01-06T10:13:20.930Z,3.10
2019-01-06T10:16:08.298Z,3.00
2019-01-06T10:18:50.506Z,3.00
2019-01-06T10:21:48.771Z,3.10
2019-01-06T10:24:53.027Z,3.10
2019-01-06T10:27:45.293Z,3.00
2019-01-06T10:30:32.243Z,2.90
2019-01-06T10:33:16.127Z,3.00
2019-01-06T10:36:04.959Z,3.40
2019-01-06T10:38:52.551Z,3.50
2019-01-06T10:41:39.883Z,3.40
2019-01-06T10:44:31.591Z,3.30
2019-01-06T10:47:19.147Z,3.40
2019-01-06T10:50:08.254Z,3.40
2019-01-06T10:53:12.028Z,3.20
2019-01-06T10:55:52.666Z,3.00
2019-01-06T10:58:47.772Z,3.20
2019-01-06T11:01:37.276Z,3.20
2019-01-06T11:04:33.394Z,3.10
2019-01-06T11:07:27.626Z,3.30
2019-01-06T11:10:19.439Z,3.20
2019-01-06T11:13:14.652Z,3.10
2019-01-06T11:16:09.534Z,3.10
2019-01-06T11:18:56.818Z,3.00
2019-01-06T11:21:51.697Z,2.90
2019-01-06T11:24:39.744Z,2.90
2019-01-06T11:27:32.694Z,2.90
2019-01-06T11:30:20.383Z,3.20
2019-01-06T11:33:09.281Z,3.50
2019-01-06T11:35:58.405Z,3.60
2019-01-06T11:38:46.015Z,3.80
2019-01-06T11:41:50.203Z,3.90
2019-01-06T11:44:50.684Z,3.70
2019-01-06T11:47:36.398Z,3.60
2019-01-06T11:50:23.832Z,3.40
2019-01-06T11:53:27.652Z,3.30
2019-01-06T11:56:09.618Z,3.40
2019-01-06T11:58:48.897Z,3.30
2019-01-06T12:01:43.866Z,3.30
2019-01-06T12:04:31.470Z,3.40
2019-01-06T12:07:18.824Z,3.30
2019-01-06T12:10:11.554Z,3.10
2019-01-06T12:12:54.538Z,3.20
2019-01-06T12:15:46.345Z,3.30
2019-01-06T12:18:47.651Z,3.30
2019-01-06T12:21:39.530Z,3.60
2019-01-06T12:24:32.685Z,3.40
2019-01-06T12:27:20.166Z,3.40
2019-01-06T12:30:07.869Z,3.50
2019-01-06T12:32:51.658Z,3.40
2019-01-06T12:35:49.605Z,3.40
2019-01-06T12:38:50.586Z,3.20
2019-01-06T12:41:38.458Z,3.00
2019-01-06T12:44:27.000Z,3.00
2019-01-06T12:47:15.966Z,3.10
2019-01-06T12:50:01.887Z,3.00
2019-01-06T12:53:06.010Z,3.00
2019-01-06T12:55:54.026Z,3.10
2019-01-06T12:58:52.166Z,3.20
2019-01-06T13:01:40.166Z,3.20
2019-01-06T13:04:28.403Z,3.30
2019-01-06T13:07:16.589Z,3.40
2019-01-06T13:10:20.689Z,3.40
2019-01-06T13:13:12.602Z,3.40
2019-01-06T13:16:04.366Z,3.30
2019-01-06T13:18:47.603Z,3.40
2019-01-06T13:21:55.048Z,3.50
2019-01-06T13:24:42.596Z,3.50
2019-01-06T13:27:40.134Z,3.50
2019-01-06T13:30:32.597Z,3.40
2019-01-06T13:33:19.859Z,3.10
2019-01-06T13:36:08.750Z,3.00
2019-01-06T13:38:55.187Z,3.00
2019-01-06T13:41:34.106Z,2.90
2019-01-06T13:44:29.213Z,2.80
2019-01-06T13:47:18.151Z,2.80
2019-01-06T13:50:16.146Z,2.60
2019-01-06T13:53:05.323Z,2.50
2019-01-06T13:55:53.930Z,2.60
2019-01-06T13:58:49.146Z,2.60
2019-01-06T14:01:33.179Z,2.60
2019-01-06T14:04:22.223Z,2.60
2019-01-06T14:07:12.438Z,2.50
2019-01-06T14:10:00.085Z,2.60
2019-01-06T14:12:58.942Z,2.60
2019-01-06T14:15:48.663Z,2.60
2019-01-06T14:18:36.030Z,2.60
2019-01-06T14:21:39.817Z,2.60
2019-01-06T14:24:27.429Z,2.50
2019-01-06T14:27:19.151Z,2.60
2019-01-06T14:30:08.094Z,2.50
2019-01-06T14:32:48.995Z,2.50
2019-01-06T14:35:30.431Z,2.50
2019-01-06T14:38:19.278Z,2.50
2019-01-06T14:41:07.071Z,2.40
2019-01-06T14:43:59.102Z,2.50
2019-01-06T14:46:44.546Z,2.60
2019-01-06T14:49:49.758Z,2.60
2019-01-06T14:52:38.667Z,2.40
2019-01-06T14:55:24.028Z,2.30
2019-01-06T14:58:14.321Z,2.30
2019-01-06T15:01:02.029Z,2.30
2019-01-06T15:03:47.244Z,2.30
2019-01-06T15:06:34.186Z,2.30
2019-01-06T15:09:26.868Z,2.30
2019-01-06T15:12:30.673Z,2.20
2019-01-06T15:15:25.323Z,2.20
2019-01-06T15:18:23.302Z,2.10
2019-01-06T15:21:10.646Z,2.00
2019-01-06T15:24:02.535Z,2.00
2019-01-06T15:26:51.395Z,1.90
2019-01-06T15:29:40.218Z,1.90
2019-01-06T15:32:26.284Z,1.90
2019-01-06T15:35:15.450Z,1.90
2019-01-06T15:37:59.045Z,1.90
2019-01-06T15:40:46.390Z,1.90
2019-01-06T15:43:33.704Z,1.90
2019-01-06T15:46:37.649Z,1.90
2019-01-06T15:49:27.629Z,2.00
2019-01-06T15:52:14.926Z,1.90
2019-01-06T15:55:02.334Z,2.00
2019-01-06T15:57:48.310Z,1.90
2019-01-06T16:00:37.369Z,2.00
2019-01-06T16:03:24.806Z,2.00
2019-01-06T16:06:17.063Z,1.90
2019-01-06T16:09:12.231Z,1.90
2019-01-06T16:12:08.637Z,1.90
2019-01-06T16:14:58.124Z,1.90
2019-01-06T16:17:47.362Z,1.80
2019-01-06T16:20:41.219Z,1.80
2019-01-06T16:23:29.542Z,1.80
2019-01-06T16:26:14.263Z,1.70
2019-01-06T16:29:11.953Z,1.70
2019-01-06T16:31:59.512Z,1.70
2019-01-06T16:34:46.974Z,1.70
2019-01-06T16:37:50.902Z,1.60
2019-01-06T16:40:38.394Z,1.60
2019-01-06T16:43:20.938Z,1.60
2019-01-06T16:46:15.696Z,1.60
2019-01-06T16:49:03.468Z,1.60
2019-01-06T16:52:04.528Z,1.60
2019-01-06T16:54:53.847Z,1.60
2019-01-06T16:57:55.016Z,1.50
2019-01-06T17:00:42.669Z,1.60
2019-01-06T17:03:31.684Z,1.60
2019-01-06T17:06:31.643Z,1.50
2019-01-06T17:09:20.663Z,1.50
2019-01-06T17:12:10.798Z,1.50
2019-01-06T17:15:12.258Z,1.50
2019-01-06T17:17:59.017Z,1.40
2019-01-06T17:20:39.296Z,1.40
2019-01-06T17:23:26.886Z,1.40
2019-01-06T17:26:24.968Z,1.40
2019-01-06T17:29:26.463Z,1.40
2019-01-06T17:32:24.426Z,1.40
2019-01-06T17:35:11.916Z,1.40
2019-01-06T17:38:03.574Z,1.40
2019-01-06T17:40:54.649Z,1.40
2019-01-06T17:43:42.082Z,1.50
2019-01-06T17:46:41.555Z,1.40
2019-01-06T17:49:30.098Z,1.40
2019-01-06T17:52:28.273Z,1.30
2019-01-06T17:55:16.602Z,1.30
2019-01-06T17:58:11.860Z,1.40
2019-01-06T18:01:15.918Z,1.50
2019-01-06T18:04:10.718Z,1.50
2019-01-06T18:07:05.749Z,1.50
2019-01-06T18:10:09.781Z,1.50
2019-01-06T18:13:11.483Z,1.40
2019-01-06T18:16:03.236Z,1.40
2019-01-06T18:18:50.690Z,1.60
2019-01-06T18:21:39.842Z,1.60
2019-01-06T18:24:28.963Z,1.60
2019-01-06T18:27:31.747Z,1.60
2019-01-06T18:30:23.937Z,1.60
2019-01-06T18:33:11.250Z,1.50
2019-01-06T18:36:00.258Z,1.50
2019-01-06T18:39:04.597Z,1.50
2019-01-06T18:41:54.475Z,1.60
2019-01-06T18:44:43.455Z,1.60
2019-01-06T18:47:38.895Z,1.60
2019-01-06T18:50:27.011Z,1.70
2019-01-06T18:53:19.334Z,1.80
2019-01-06T18:56:04.333Z,1.80
2019-01-06T18:58:49.642Z,1.80
2019-01-06T19:01:44.905Z,1.80
2019-01-06T19:04:33.872Z,1.90
2019-01-06T19:07:21.509Z,1.90
2019-01-06T19:10:09.741Z,2.00
2019-01-06T19:13:03.734Z,2.00
2019-01-06T19:16:02.218Z,2.10
2019-01-06T19:18:51.198Z,2.00
2019-01-06T19:21:38.946Z,2.10
2019-01-06T19:24:33.433Z,2.10
2019-01-06T19:27:40.684Z,2.10
2019-01-06T19:30:33.922Z,2.10
2019-01-06T19:33:37.523Z,2.10
2019-01-06T19:36:38.780Z,2.10
2019-01-06T19:39:26.413Z,2.10
2019-01-06T19:42:21.669Z,2.10
2019-01-06T19:45:16.378Z,2.10
2019-01-06T19:48:05.257Z,2.10
2019-01-06T19:51:06.689Z,2.00
2019-01-06T19:54:11.138Z,2.00
2019-01-06T19:57:03.167Z,2.00
2019-01-06T19:59:53.336Z,2.00
2019-01-06T20:02:54.454Z,2.00
2019-01-06T20:05:43.434Z,1.90
2019-01-06T20:08:42.749Z,1.90
2019-01-06T20:11:30.270Z,2.00
2019-01-06T20:14:25.269Z,2.00
2019-01-06T20:17:13.111Z,2.00
2019-01-06T20:20:11.127Z,1.90
2019-01-06T20:22:58.682Z,1.90
2019-01-06T20:25:46.096Z,2.00
2019-01-06T20:28:37.871Z,2.00
2019-01-06T20:31:32.768Z,2.00
2019-01-06T20:34:36.677Z,2.00
2019-01-06T20:37:26.412Z,2.00
2019-01-06T20:40:12.859Z,2.00
2019-01-06T20:43:02.161Z,2.00
2019-01-06T20:45:50.388Z,2.00
2019-01-06T20:48:38.263Z,2.00
2019-01-06T20:51:38.448Z,2.00
2019-01-06T20:54:24.589Z,2.00
2019-01-06T20:57:23.519Z,2.00
2019-01-06T21:00:11.347Z,2.00
2019-01-06T21:03:00.458Z,2.00
2019-01-06T21:05:56.558Z,2.00
2019-01-06T21:08:43.988Z,2.00
2019-01-06T21:11:44.790Z,2.00
2019-01-06T21:14:36.175Z,1.90
2019-01-06T21:17:23.861Z,2.00
2019-01-06T21:20:03.914Z,2.00
2019-01-06T21:22:51.341Z,1.90
2019-01-06T21:25:56.092Z,2.00
2019-01-06T21:29:02.978Z,2.00
2019-01-06T21:31:50.514Z,2.00
2019-01-06T21:34:38.249Z,1.90
2019-01-06T21:37:28.078Z,1.90
2019-01-06T21:40:11.865Z,2.00
2019-01-06T21:43:04.634Z,1.90
2019-01-06T21:46:07.143Z,2.00
2019-01-06T21:48:54.918Z,1.90
2019-01-06T21:51:42.838Z,2.00
2019-01-06T21:54:30.707Z,2.00
2019-01-06T21:57:37.918Z,2.00
2019-01-06T22:00:30.723Z,2.00
2019-01-06T22:03:17.133Z,2.00
2019-01-06T22:06:09.968Z,2.00
2019-01-06T22:08:59.144Z,2.00
2019-01-06T22:11:48.413Z,2.10
2019-01-06T22:14:36.158Z,2.00
2019-01-06T22:17:24.156Z,2.00
2019-01-06T22:20:22.354Z,2.00
2019-01-06T22:23:30.065Z,2.00
2019-01-06T22:26:27.981Z,2.00
2019-01-06T22:29:35.242Z,2.00
2019-01-06T22:32:42.156Z,2.00
2019-01-06T22:35:43.522Z,2.00
2019-01-06T22:38:32.438Z,2.00
2019-01-06T22:41:18.011Z,2.00
2019-01-06T22:44:06.983Z,2.00
2019-01-06T22:47:08.051Z,2.00
2019-01-06T22:50:00.051Z,2.00
2019-01-06T22:53:00.819Z,2.00
2019-01-06T22:55:50.378Z,2.00
2019-01-06T22:58:37.798Z,2.10
2019-01-06T23:01:28.979Z,2.00
2019-01-06T23:04:17.813Z,2.00
2019-01-06T23:07:23.721Z,2.00
2019-01-06T23:10:06.769Z,2.00
2019-01-06T23:12:55.589Z,2.10
2019-01-06T23:15:43.291Z,2.00
2019-01-06T23:18:41.077Z,2.00
2019-01-06T23:21:29.129Z,2.10
2019-01-06T23:24:18.637Z,2.00
2019-01-06T23:27:06.074Z,2.00
2019-01-06T23:30:13.059Z,2.00
2019-01-06T23:32:57.399Z,2.00
2019-01-06T23:35:47.466Z,2.00
2019-01-06T23:38:48.343Z,1.90
2019-01-06T23:41:43.054Z,2.00
2019-01-06T23:44:34.762Z,2.00
2019-01-06T23:47:18.413Z,1.90
2019-01-06T23:50:09.027Z,1.90
2019-01-06T23:53:13.254Z,1.90
2019-01-06T23:56:00.469Z,2.00
2019-01-06T23:58:52.117Z,2.00
